sensor_id;sensor_type;location;lat;lon;timestamp;pressure;altitude;pressure_sealevel;temperature;humidity
65800;BME280;52544;48.116;11.660;2024-02-26T00:00:16;93912.97;;;2.75;100.00
65800;BME280;52544;48.116;11.660;2024-02-26T00:02:42;93904.78;;;2.80;100.00
65800;BME280;52544;48.116;11.660;2024-02-26T00:05:08;93909.69;;;2.73;100.00
65800;BME280;52544;48.116;11.660;2024-02-26T00:07:33;93901.84;;;2.73;100.00
65800;BME280;52544;48.116;11.660;2024-02-26T00:09:59;93899.94;;;2.75;100.00
65800;BME280;52544;48.116;11.660;2024-02-26T00:12:24;93896.16;;;2.68;100.00
65800;BME280;52544;48.116;11.660;2024-02-26T00:14:50;93889.28;;;2.67;100.00
65800;BME280;52544;48.116;11.660;2024-02-26T00:17:15;93892.59;;;2.69;100.00
65800;BME280;52544;48.116;11.660;2024-02-26T00:19:41;93892.59;;;2.69;100.00
65800;BME280;52544;48.116;11.660;2024-02-26T00:22:06;93899.16;;;2.64;100.00
65800;BME280;52544;48.116;11.660;2024-02-26T00:24:32;93890.75;;;2.60;100.00
65800;BME280;52544;48.116;11.660;2024-02-26T00:26:59;93886.94;;;2.53;100.00
65800;BME280;52544;48.116;11.660;2024-02-26T00:29:24;93895.75;;;2.52;100.00
65800;BME280;52544;48.116;11.660;2024-02-26T00:31:51;93902.50;;;2.55;100.00
65800;BME280;52544;48.116;11.660;2024-02-26T00:34:16;93897.31;;;2.43;100.00
65800;BME280;52544;48.116;11.660;2024-02-26T00:36:42;93886.41;;;2.38;100.00
65800;BME280;52544;48.116;11.660;2024-02-26T00:39:07;93885.38;;;2.30;100.00
65800;BME280;52544;48.116;11.660;2024-02-26T00:41:33;93884.78;;;2.26;100.00
65800;BME280;52544;48.116;11.660;2024-02-26T00:43:58;93886.22;;;2.08;100.00
65800;BME280;52544;48.116;11.660;2024-02-26T00:46:24;93880.66;;;2.12;100.00
65800;BME280;52544;48.116;11.660;2024-02-26T00:48:50;93882.56;;;2.21;100.00
65800;BME280;52544;48.116;11.660;2024-02-26T00:51:15;93879.22;;;2.19;100.00
65800;BME280;52544;48.116;11.660;2024-02-26T00:53:41;93883.03;;;2.15;100.00
65800;BME280;52544;48.116;11.660;2024-02-26T00:56:06;93879.94;;;2.21;100.00
65800;BME280;52544;48.116;11.660;2024-02-26T00:58:31;93879.44;;;2.16;100.00
65800;BME280;52544;48.116;11.660;2024-02-26T01:00:57;93877.13;;;2.02;100.00
65800;BME280;52544;48.116;11.660;2024-02-26T01:03:23;93878.31;;;1.98;100.00
65800;BME280;52544;48.116;11.660;2024-02-26T01:05:48;93878.78;;;2.03;100.00
65800;BME280;52544;48.116;11.660;2024-02-26T01:08:14;93885.19;;;1.99;100.00
65800;BME280;52544;48.116;11.660;2024-02-26T01:10:39;93876.19;;;1.92;100.00
65800;BME280;52544;48.116;11.660;2024-02-26T01:13:05;93874.88;;;1.97;100.00
65800;BME280;52544;48.116;11.660;2024-02-26T01:15:30;93873.09;;;1.98;100.00
65800;BME280;52544;48.116;11.660;2024-02-26T01:17:55;93872.63;;;1.93;100.00
65800;BME280;52544;48.116;11.660;2024-02-26T01:20:21;93872.41;;;1.73;100.00
65800;BME280;52544;48.116;11.660;2024-02-26T01:22:46;93870.75;;;1.72;100.00
65800;BME280;52544;48.116;11.660;2024-02-26T01:25:12;93878.69;;;1.48;100.00
65800;BME280;52544;48.116;11.660;2024-02-26T01:27:38;93868.16;;;1.50;100.00
65800;BME280;52544;48.116;11.660;2024-02-26T01:30:07;93873.25;;;1.63;100.00
65800;BME280;52544;48.116;11.660;2024-02-26T01:32:32;93872.66;;;1.59;100.00
65800;BME280;52544;48.116;11.660;2024-02-26T01:34:58;93869.81;;;1.51;100.00
65800;BME280;52544;48.116;11.660;2024-02-26T01:37:23;93868.50;;;1.45;100.00
65800;BME280;52544;48.116;11.660;2024-02-26T01:39:49;93869.78;;;1.40;100.00
65800;BME280;52544;48.116;11.660;2024-02-26T01:42:14;93871.00;;;1.47;100.00
65800;BME280;52544;48.116;11.660;2024-02-26T01:44:39;93868.03;;;1.52;100.00
65800;BME280;52544;48.116;11.660;2024-02-26T01:47:07;93879.28;;;1.63;100.00
65800;BME280;52544;48.116;11.660;2024-02-26T01:49:34;93872.88;;;1.67;100.00
65800;BME280;52544;48.116;11.660;2024-02-26T01:52:01;93870.03;;;1.59;100.00
65800;BME280;52544;48.116;11.660;2024-02-26T01:54:27;93867.44;;;1.59;100.00
65800;BME280;52544;48.116;11.660;2024-02-26T01:56:53;93870.53;;;1.53;100.00
65800;BME280;52544;48.116;11.660;2024-02-26T01:59:19;93861.50;;;1.35;100.00
65800;BME280;52544;48.116;11.660;2024-02-26T02:01:48;93858.19;;;1.33;100.00
65800;BME280;52544;48.116;11.660;2024-02-26T02:04:17;93858.66;;;1.38;100.00
65800;BME280;52544;48.116;11.660;2024-02-26T02:06:45;93859.38;;;1.40;100.00
65800;BME280;52544;48.116;11.660;2024-02-26T02:09:11;93855.34;;;1.47;100.00
65800;BME280;52544;48.116;11.660;2024-02-26T02:11:37;93854.75;;;1.43;100.00
65800;BME280;52544;48.116;11.660;2024-02-26T02:14:02;93851.09;;;1.46;100.00
65800;BME280;52544;48.116;11.660;2024-02-26T02:16:28;93845.28;;;1.42;100.00
65800;BME280;52544;48.116;11.660;2024-02-26T02:18:53;93849.19;;;1.48;100.00
65800;BME280;52544;48.116;11.660;2024-02-26T02:21:19;93840.91;;;1.54;100.00
65800;BME280;52544;48.116;11.660;2024-02-26T02:23:44;93842.09;;;1.50;100.00
65800;BME280;52544;48.116;11.660;2024-02-26T02:26:12;93836.63;;;1.42;100.00
65800;BME280;52544;48.116;11.660;2024-02-26T02:28:39;93839.94;;;1.44;100.00
65800;BME280;52544;48.116;11.660;2024-02-26T02:31:05;93844.47;;;1.53;100.00
65800;BME280;52544;48.116;11.660;2024-02-26T02:33:30;93834.25;;;1.50;100.00
65800;BME280;52544;48.116;11.660;2024-02-26T02:35:56;93835.09;;;1.50;100.00
65800;BME280;52544;48.116;11.660;2024-02-26T02:38:23;93839.00;;;1.45;100.00
65800;BME280;52544;48.116;11.660;2024-02-26T02:40:53;93836.03;;;1.27;100.00
65800;BME280;52544;48.116;11.660;2024-02-26T02:43:19;93833.41;;;1.27;100.00
65800;BME280;52544;48.116;11.660;2024-02-26T02:45:44;93834.63;;;1.34;100.00
65800;BME280;52544;48.116;11.660;2024-02-26T02:48:11;93836.63;;;1.42;100.00
65800;BME280;52544;48.116;11.660;2024-02-26T02:50:36;93842.19;;;1.26;100.00
65800;BME280;52544;48.116;11.660;2024-02-26T02:53:02;93841.38;;;1.25;100.00
65800;BME280;52544;48.116;11.660;2024-02-26T02:55:27;93835.66;;;1.32;100.00
65800;BME280;52544;48.116;11.660;2024-02-26T02:57:53;93839.00;;;1.34;100.00
65800;BME280;52544;48.116;11.660;2024-02-26T03:00:18;93837.44;;;1.31;100.00
65800;BME280;52544;48.116;11.660;2024-02-26T03:02:44;93847.41;;;1.37;100.00
65800;BME280;52544;48.116;11.660;2024-02-26T03:05:10;93836.84;;;1.39;100.00
65800;BME280;52544;48.116;11.660;2024-02-26T03:07:36;93846.47;;;1.38;100.00
65800;BME280;52544;48.116;11.660;2024-02-26T03:10:01;93832.59;;;1.38;100.00
65800;BME280;52544;48.116;11.660;2024-02-26T03:12:26;93838.78;;;1.37;100.00
65800;BME280;52544;48.116;11.660;2024-02-26T03:14:53;93835.31;;;1.25;100.00
65800;BME280;52544;48.116;11.660;2024-02-26T03:17:20;93832.38;;;1.30;100.00
65800;BME280;52544;48.116;11.660;2024-02-26T03:19:46;93836.75;;;1.29;100.00
65800;BME280;52544;48.116;11.660;2024-02-26T03:22:12;93826.78;;;1.23;100.00
65800;BME280;52544;48.116;11.660;2024-02-26T03:24:38;93830.69;;;1.17;100.00
65800;BME280;52544;48.116;11.660;2024-02-26T03:27:03;93814.72;;;1.22;100.00
65800;BME280;52544;48.116;11.660;2024-02-26T03:29:30;93823.84;;;1.28;100.00
65800;BME280;52544;48.116;11.660;2024-02-26T03:31:56;93828.56;;;1.34;100.00
65800;BME280;52544;48.116;11.660;2024-02-26T03:34:21;93825.97;;;1.34;100.00
65800;BME280;52544;48.116;11.660;2024-02-26T03:36:47;93831.53;;;1.29;100.00
65800;BME280;52544;48.116;11.660;2024-02-26T03:39:12;93838.03;;;1.35;100.00
65800;BME280;52544;48.116;11.660;2024-02-26T03:41:37;93832.38;;;1.30;100.00
65800;BME280;52544;48.116;11.660;2024-02-26T03:44:03;93837.56;;;1.30;100.00
65800;BME280;52544;48.116;11.660;2024-02-26T03:46:28;93847.78;;;1.33;100.00
65800;BME280;52544;48.116;11.660;2024-02-26T03:48:54;93833.06;;;1.32;100.00
65800;BME280;52544;48.116;11.660;2024-02-26T03:51:19;93840.19;;;1.30;100.00
65800;BME280;52544;48.116;11.660;2024-02-26T03:53:45;93824.56;;;1.41;100.00
65800;BME280;52544;48.116;11.660;2024-02-26T03:56:13;93826.44;;;1.39;100.00
65800;BME280;52544;48.116;11.660;2024-02-26T03:58:39;93831.66;;;1.39;100.00
65800;BME280;52544;48.116;11.660;2024-02-26T04:01:07;93829.16;;;1.37;100.00
65800;BME280;52544;48.116;11.660;2024-02-26T04:03:32;93822.53;;;1.33;100.00
65800;BME280;52544;48.116;11.660;2024-02-26T04:05:58;93816.50;;;1.33;100.00
65800;BME280;52544;48.116;11.660;2024-02-26T04:08:23;93813.66;;;1.24;100.00
65800;BME280;52544;48.116;11.660;2024-02-26T04:10:48;93816.84;;;1.28;100.00
65800;BME280;52544;48.116;11.660;2024-02-26T04:13:14;93826.78;;;1.23;100.00
65800;BME280;52544;48.116;11.660;2024-02-26T04:15:39;93833.31;;;1.17;100.00
65800;BME280;52544;48.116;11.660;2024-02-26T04:18:05;93825.25;;;1.20;100.00
65800;BME280;52544;48.116;11.660;2024-02-26T04:20:30;93821.22;;;1.16;100.00
65800;BME280;52544;48.116;11.660;2024-02-26T04:22:56;93832.94;;;1.22;100.00
65800;BME280;52544;48.116;11.660;2024-02-26T04:25:21;93830.94;;;1.25;100.00
65800;BME280;52544;48.116;11.660;2024-02-26T04:27:46;93825.50;;;1.29;100.00
65800;BME280;52544;48.116;11.660;2024-02-26T04:30:12;93821.13;;;1.29;100.00
65800;BME280;52544;48.116;11.660;2024-02-26T04:32:37;93832.38;;;1.30;100.00
65800;BME280;52544;48.116;11.660;2024-02-26T04:35:03;93834.38;;;1.26;100.00
65800;BME280;52544;48.116;11.660;2024-02-26T04:37:28;93836.16;;;1.25;100.00
65800;BME280;52544;48.116;11.660;2024-02-26T04:40:01;93843.59;;;1.19;100.00
65800;BME280;52544;48.116;11.660;2024-02-26T04:42:27;93839.22;;;1.08;100.00
65800;BME280;52544;48.116;11.660;2024-02-26T04:44:52;93846.56;;;1.03;100.00
65800;BME280;52544;48.116;11.660;2024-02-26T04:47:18;93837.19;;;1.00;100.00
65800;BME280;52544;48.116;11.660;2024-02-26T04:49:43;93838.50;;;0.95;100.00
65800;BME280;52544;48.116;11.660;2024-02-26T04:52:08;93843.22;;;0.90;100.00
65800;BME280;52544;48.116;11.660;2024-02-26T04:54:34;93846.66;;;0.90;100.00
65800;BME280;52544;48.116;11.660;2024-02-26T04:56:59;93841.06;;;0.84;100.00
65800;BME280;52544;48.116;11.660;2024-02-26T04:59:25;93837.75;;;0.82;100.00
65800;BME280;52544;48.116;11.660;2024-02-26T05:01:50;93831.81;;;0.80;100.00
65800;BME280;52544;48.116;11.660;2024-02-26T05:04:18;93828.25;;;0.69;100.00
65800;BME280;52544;48.116;11.660;2024-02-26T05:06:43;93828.63;;;0.76;100.00
65800;BME280;52544;48.116;11.660;2024-02-26T05:09:09;93831.47;;;0.84;100.00
65800;BME280;52544;48.116;11.660;2024-02-26T05:11:34;93825.22;;;0.87;100.00
65800;BME280;52544;48.116;11.660;2024-02-26T05:14:00;93827.34;;;0.82;100.00
65800;BME280;52544;48.116;11.660;2024-02-26T05:16:26;93819.28;;;0.85;100.00
65800;BME280;52544;48.116;11.660;2024-02-26T05:18:53;93822.75;;;0.85;100.00
65800;BME280;52544;48.116;11.660;2024-02-26T05:21:18;93825.09;;;0.88;100.00
65800;BME280;52544;48.116;11.660;2024-02-26T05:23:43;93831.38;;;0.97;100.00
65800;BME280;52544;48.116;11.660;2024-02-26T05:26:10;93834.13;;;1.07;100.00
65800;BME280;52544;48.116;11.660;2024-02-26T05:28:35;93847.97;;;1.07;100.00
65800;BME280;52544;48.116;11.660;2024-02-26T05:31:02;93844.91;;;1.02;100.00
65800;BME280;52544;48.116;11.660;2024-02-26T05:33:28;93846.44;;;1.05;100.00
65800;BME280;52544;48.116;11.660;2024-02-26T05:35:54;93840.25;;;1.06;100.00
65800;BME280;52544;48.116;11.660;2024-02-26T05:38:19;93844.91;;;1.02;100.00
65800;BME280;52544;48.116;11.660;2024-02-26T05:40:44;93840.53;;;1.03;100.00
65800;BME280;52544;48.116;11.660;2024-02-26T05:43:11;93845.59;;;1.04;100.00
65800;BME280;52544;48.116;11.660;2024-02-26T05:45:36;93839.44;;;0.94;100.00
65800;BME280;52544;48.116;11.660;2024-02-26T05:48:02;93847.25;;;0.94;100.00
65800;BME280;52544;48.116;11.660;2024-02-26T05:50:28;93842.31;;;1.02;100.00
65800;BME280;52544;48.116;11.660;2024-02-26T05:52:53;93851.97;;;0.89;100.00
65800;BME280;52544;48.116;11.660;2024-02-26T05:55:19;93859.41;;;0.82;100.00
65800;BME280;52544;48.116;11.660;2024-02-26T05:57:44;93861.38;;;0.67;100.00
65800;BME280;52544;48.116;11.660;2024-02-26T06:00:10;93861.03;;;0.72;100.00
65800;BME280;52544;48.116;11.660;2024-02-26T06:02:35;93863.78;;;0.82;100.00
65800;BME280;52544;48.116;11.660;2024-02-26T06:05:01;93862.84;;;0.83;100.00
65800;BME280;52544;48.116;11.660;2024-02-26T06:07:26;93864.03;;;0.79;100.00
65800;BME280;52544;48.116;11.660;2024-02-26T06:09:52;93876.13;;;0.91;100.00
65800;BME280;52544;48.116;11.660;2024-02-26T06:12:17;93874.59;;;0.99;100.00
65800;BME280;52544;48.116;11.660;2024-02-26T06:14:43;93868.22;;;1.04;100.00
65800;BME280;52544;48.116;11.660;2024-02-26T06:17:08;93866.09;;;1.09;100.00
65800;BME280;52544;48.116;11.660;2024-02-26T06:19:33;93876.16;;;1.13;100.00
65800;BME280;52544;48.116;11.660;2024-02-26T06:21:59;93883.16;;;1.13;100.00
65800;BME280;52544;48.116;11.660;2024-02-26T06:24:24;93880.41;;;1.14;100.00
65800;BME280;52544;48.116;11.660;2024-02-26T06:26:50;93881.84;;;1.18;100.00
65800;BME280;52544;48.116;11.660;2024-02-26T06:29:15;93890.41;;;1.32;100.00
65800;BME280;52544;48.116;11.660;2024-02-26T06:31:40;93896.13;;;1.37;100.00
65800;BME280;52544;48.116;11.660;2024-02-26T06:34:06;93891.81;;;1.36;100.00
65800;BME280;52544;48.116;11.660;2024-02-26T06:36:31;93891.63;;;1.50;100.00
65800;BME280;52544;48.116;11.660;2024-02-26T06:38:57;93901.34;;;1.59;100.00
65800;BME280;52544;48.116;11.660;2024-02-26T06:41:25;93911.28;;;1.65;100.00
65800;BME280;52544;48.116;11.660;2024-02-26T06:43:53;93905.59;;;1.71;100.00
65800;BME280;52544;48.116;11.660;2024-02-26T06:46:19;93910.09;;;1.81;100.00
65800;BME280;52544;48.116;11.660;2024-02-26T06:48:44;93914.25;;;1.94;100.00
65800;BME280;52544;48.116;11.660;2024-02-26T06:51:09;93907.72;;;2.00;100.00
65800;BME280;52544;48.116;11.660;2024-02-26T06:53:35;93916.72;;;2.07;100.00
65800;BME280;52544;48.116;11.660;2024-02-26T06:56:00;93916.00;;;2.16;100.00
65800;BME280;52544;48.116;11.660;2024-02-26T06:58:26;93925.38;;;2.19;100.00
65800;BME280;52544;48.116;11.660;2024-02-26T07:00:51;93940.44;;;2.27;100.00
65800;BME280;52544;48.116;11.660;2024-02-26T07:03:16;93946.56;;;2.37;100.00
65800;BME280;52544;48.116;11.660;2024-02-26T07:05:42;93937.44;;;2.42;100.00
65800;BME280;52544;48.116;11.660;2024-02-26T07:08:07;93934.56;;;2.45;100.00
65800;BME280;52544;48.116;11.660;2024-02-26T07:10:33;93929.25;;;2.47;100.00
65800;BME280;52544;48.116;11.660;2024-02-26T07:12:59;93935.97;;;2.49;100.00
65800;BME280;52544;48.116;11.660;2024-02-26T07:15:24;93934.09;;;2.52;100.00
65800;BME280;52544;48.116;11.660;2024-02-26T07:17:50;93936.09;;;2.59;100.00
65800;BME280;52544;48.116;11.660;2024-02-26T07:20:15;93939.63;;;2.69;100.00
65800;BME280;52544;48.116;11.660;2024-02-26T07:22:40;93933.63;;;2.79;100.00
65800;BME280;52544;48.116;11.660;2024-02-26T07:25:08;93938.63;;;2.82;100.00
65800;BME280;52544;48.116;11.660;2024-02-26T07:27:34;93941.00;;;2.85;100.00
65800;BME280;52544;48.116;11.660;2024-02-26T07:29:59;93942.59;;;2.97;100.00
65800;BME280;52544;48.116;11.660;2024-02-26T07:32:25;93936.88;;;3.03;100.00
65800;BME280;52544;48.116;11.660;2024-02-26T07:34:50;93938.72;;;3.12;100.00
65800;BME280;52544;48.116;11.660;2024-02-26T07:37:15;93924.91;;;3.21;100.00
65800;BME280;52544;48.116;11.660;2024-02-26T07:39:41;93931.28;;;3.29;100.00
65800;BME280;52544;48.116;11.660;2024-02-26T07:42:06;93931.47;;;3.37;100.00
65800;BME280;52544;48.116;11.660;2024-02-26T07:44:33;93925.47;;;3.46;100.00
65800;BME280;52544;48.116;11.660;2024-02-26T07:46:58;93936.94;;;3.55;100.00
65800;BME280;52544;48.116;11.660;2024-02-26T07:49:24;93927.63;;;3.62;100.00
65800;BME280;52544;48.116;11.660;2024-02-26T07:51:49;93932.38;;;3.78;100.00
65800;BME280;52544;48.116;11.660;2024-02-26T07:54:14;93941.56;;;3.93;100.00
65800;BME280;52544;48.116;11.660;2024-02-26T07:56:41;93944.59;;;3.98;100.00
65800;BME280;52544;48.116;11.660;2024-02-26T07:59:07;93961.09;;;3.89;100.00
65800;BME280;52544;48.116;11.660;2024-02-26T08:01:32;93968.72;;;3.71;100.00
65800;BME280;52544;48.116;11.660;2024-02-26T08:03:58;93966.84;;;3.83;100.00
65800;BME280;52544;48.116;11.660;2024-02-26T08:06:24;93956.72;;;3.99;100.00
65800;BME280;52544;48.116;11.660;2024-02-26T08:08:50;93965.84;;;4.05;100.00
65800;BME280;52544;48.116;11.660;2024-02-26T08:11:16;93962.97;;;4.08;100.00
65800;BME280;52544;48.116;11.660;2024-02-26T08:13:41;93958.75;;;4.16;100.00
65800;BME280;52544;48.116;11.660;2024-02-26T08:16:07;93954.84;;;4.11;100.00
65800;BME280;52544;48.116;11.660;2024-02-26T08:18:32;93961.63;;;4.13;100.00
65800;BME280;52544;48.116;11.660;2024-02-26T08:20:58;93960.34;;;4.08;100.00
65800;BME280;52544;48.116;11.660;2024-02-26T08:23:23;93951.25;;;4.12;100.00
65800;BME280;52544;48.116;11.660;2024-02-26T08:25:49;93949.66;;;4.20;100.00
65800;BME280;52544;48.116;11.660;2024-02-26T08:28:14;93953.81;;;4.33;100.00
65800;BME280;52544;48.116;11.660;2024-02-26T08:30:39;93951.38;;;4.41;100.00
65800;BME280;52544;48.116;11.660;2024-02-26T08:33:05;93943.94;;;4.46;100.00
65800;BME280;52544;48.116;11.660;2024-02-26T08:35:30;93943.97;;;4.56;100.00
65800;BME280;52544;48.116;11.660;2024-02-26T08:37:56;93950.06;;;4.66;100.00
65800;BME280;52544;48.116;11.660;2024-02-26T08:40:21;93953.38;;;4.78;100.00
65800;BME280;52544;48.116;11.660;2024-02-26T08:42:47;93961.81;;;4.91;100.00
65800;BME280;52544;48.116;11.660;2024-02-26T08:45:12;93968.59;;;5.03;100.00
65800;BME280;52544;48.116;11.660;2024-02-26T08:47:38;93973.00;;;5.12;100.00
65800;BME280;52544;48.116;11.660;2024-02-26T08:50:04;93962.81;;;5.29;100.00
65800;BME280;52544;48.116;11.660;2024-02-26T08:52:30;93969.03;;;5.37;100.00
65800;BME280;52544;48.116;11.660;2024-02-26T08:54:55;93978.56;;;5.48;100.00
65800;BME280;52544;48.116;11.660;2024-02-26T08:57:22;93976.31;;;5.63;100.00
65800;BME280;52544;48.116;11.660;2024-02-26T08:59:47;93977.13;;;5.63;100.00
65800;BME280;52544;48.116;11.660;2024-02-26T09:02:13;93974.38;;;5.74;100.00
65800;BME280;52544;48.116;11.660;2024-02-26T09:04:38;93971.56;;;5.86;100.00
65800;BME280;52544;48.116;11.660;2024-02-26T09:07:03;93978.50;;;5.96;100.00
65800;BME280;52544;48.116;11.660;2024-02-26T09:09:29;93983.31;;;6.01;100.00
65800;BME280;52544;48.116;11.660;2024-02-26T09:11:54;93977.34;;;6.09;100.00
65800;BME280;52544;48.116;11.660;2024-02-26T09:14:21;93976.22;;;6.11;100.00
65800;BME280;52544;48.116;11.660;2024-02-26T09:16:46;93970.97;;;6.21;100.00
65800;BME280;52544;48.116;11.660;2024-02-26T09:19:14;93971.19;;;6.28;100.00
65800;BME280;52544;48.116;11.660;2024-02-26T09:21:46;93975.91;;;6.34;100.00
65800;BME280;52544;48.116;11.660;2024-02-26T09:24:12;93978.31;;;6.45;100.00
65800;BME280;52544;48.116;11.660;2024-02-26T09:26:38;93981.06;;;6.53;100.00
65800;BME280;52544;48.116;11.660;2024-02-26T09:29:03;93975.59;;;6.64;100.00
65800;BME280;52544;48.116;11.660;2024-02-26T09:31:29;93978.06;;;6.75;100.00
65800;BME280;52544;48.116;11.660;2024-02-26T09:33:55;93977.69;;;6.88;100.00
65800;BME280;52544;48.116;11.660;2024-02-26T09:36:20;93987.47;;;6.96;99.39
65800;BME280;52544;48.116;11.660;2024-02-26T09:38:46;93974.41;;;7.04;98.85
65800;BME280;52544;48.116;11.660;2024-02-26T09:41:15;93979.47;;;7.15;96.83
65800;BME280;52544;48.116;11.660;2024-02-26T09:43:43;93978.84;;;7.21;94.61
65800;BME280;52544;48.116;11.660;2024-02-26T09:46:10;93980.91;;;7.28;94.70
65800;BME280;52544;48.116;11.660;2024-02-26T09:48:37;93982.91;;;7.34;94.20
65800;BME280;52544;48.116;11.660;2024-02-26T09:51:03;93978.56;;;7.42;94.78
65800;BME280;52544;48.116;11.660;2024-02-26T09:53:30;93972.31;;;7.61;91.96
65800;BME280;52544;48.116;11.660;2024-02-26T09:55:57;93962.94;;;7.85;90.74
65800;BME280;52544;48.116;11.660;2024-02-26T09:58:24;93966.03;;;8.06;86.42
65800;BME280;52544;48.116;11.660;2024-02-26T10:00:56;93965.28;;;8.14;86.41
65800;BME280;52544;48.116;11.660;2024-02-26T10:03:27;93967.78;;;8.23;83.85
65800;BME280;52544;48.116;11.660;2024-02-26T10:05:53;93971.06;;;8.17;83.68
65800;BME280;52544;48.116;11.660;2024-02-26T10:08:21;93957.72;;;8.19;84.77
65800;BME280;52544;48.116;11.660;2024-02-26T10:10:47;93957.94;;;8.25;87.72
65800;BME280;52544;48.116;11.660;2024-02-26T10:13:13;93954.81;;;8.30;86.51
65800;BME280;52544;48.116;11.660;2024-02-26T10:15:38;93951.66;;;8.26;83.89
65800;BME280;52544;48.116;11.660;2024-02-26T10:18:05;93958.06;;;8.24;81.19
65800;BME280;52544;48.116;11.660;2024-02-26T10:20:31;93956.53;;;8.13;74.14
65800;BME280;52544;48.116;11.660;2024-02-26T10:22:57;93957.88;;;8.17;74.73
65800;BME280;52544;48.116;11.660;2024-02-26T10:25:22;93957.59;;;8.20;73.18
65800;BME280;52544;48.116;11.660;2024-02-26T10:27:48;93948.38;;;8.24;72.63
65800;BME280;52544;48.116;11.660;2024-02-26T10:30:21;93953.66;;;8.24;72.33
65800;BME280;52544;48.116;11.660;2024-02-26T10:32:48;93948.25;;;8.34;73.33
65800;BME280;52544;48.116;11.660;2024-02-26T10:35:15;93945.38;;;8.45;74.01
65800;BME280;52544;48.116;11.660;2024-02-26T10:37:42;93944.22;;;8.48;72.54
65800;BME280;52544;48.116;11.660;2024-02-26T10:40:11;93937.66;;;8.52;72.46
65800;BME280;52544;48.116;11.660;2024-02-26T10:42:37;93937.38;;;8.63;71.79
65800;BME280;52544;48.116;11.660;2024-02-26T10:45:05;93930.00;;;8.75;73.64
65800;BME280;52544;48.116;11.660;2024-02-26T10:47:31;93931.81;;;8.83;71.59
65800;BME280;52544;48.116;11.660;2024-02-26T10:49:58;93932.69;;;8.91;69.86
65800;BME280;52544;48.116;11.660;2024-02-26T10:52:25;93931.25;;;9.05;71.66
65800;BME280;52544;48.116;11.660;2024-02-26T10:54:53;93923.34;;;9.13;73.04
65800;BME280;52544;48.116;11.660;2024-02-26T10:57:19;93928.97;;;9.26;74.00
65800;BME280;52544;48.116;11.660;2024-02-26T10:59:47;93917.75;;;9.41;73.33
65800;BME280;52544;48.116;11.660;2024-02-26T11:02:13;93922.22;;;9.57;73.94
65800;BME280;52544;48.116;11.660;2024-02-26T11:04:39;93927.00;;;9.77;73.39
65800;BME280;52544;48.116;11.660;2024-02-26T11:07:05;93945.13;;;9.89;70.75
65800;BME280;52544;48.116;11.660;2024-02-26T11:09:32;93949.59;;;10.05;70.05
65800;BME280;52544;48.116;11.660;2024-02-26T11:11:58;93950.06;;;10.33;68.36
65800;BME280;52544;48.116;11.660;2024-02-26T11:14:25;93954.94;;;10.60;61.00
65800;BME280;52544;48.116;11.660;2024-02-26T11:16:51;93952.84;;;10.87;60.68
65800;BME280;52544;48.116;11.660;2024-02-26T11:19:17;93957.25;;;11.02;58.05
65800;BME280;52544;48.116;11.660;2024-02-26T11:21:43;93959.47;;;11.22;59.33
65800;BME280;52544;48.116;11.660;2024-02-26T11:24:13;93959.53;;;11.37;56.78
65800;BME280;52544;48.116;11.660;2024-02-26T11:26:46;93969.91;;;11.46;56.51
65800;BME280;52544;48.116;11.660;2024-02-26T11:29:17;93964.31;;;11.41;57.00
65800;BME280;52544;48.116;11.660;2024-02-26T11:31:44;93968.72;;;11.49;56.65
65800;BME280;52544;48.116;11.660;2024-02-26T11:34:10;93971.19;;;11.50;56.82
65800;BME280;52544;48.116;11.660;2024-02-26T11:36:36;93972.81;;;11.60;56.78
65800;BME280;52544;48.116;11.660;2024-02-26T11:39:04;93958.41;;;11.85;57.14
65800;BME280;52544;48.116;11.660;2024-02-26T11:41:29;93956.84;;;12.29;54.96
65800;BME280;52544;48.116;11.660;2024-02-26T11:44:02;93950.28;;;12.54;52.21
65800;BME280;52544;48.116;11.660;2024-02-26T11:46:41;93959.25;;;12.68;52.73
65800;BME280;52544;48.116;11.660;2024-02-26T11:51:54;93953.22;;;12.59;51.46
65800;BME280;52544;48.116;11.660;2024-02-26T11:54:57;93944.88;;;12.47;53.50
65800;BME280;52544;48.116;11.660;2024-02-26T11:57:37;93940.56;;;12.91;52.68
65800;BME280;52544;48.116;11.660;2024-02-26T12:05:16;93931.88;;;13.69;48.33
65800;BME280;52544;48.116;11.660;2024-02-26T12:07:48;93941.84;;;13.67;48.25
65800;BME280;52544;48.116;11.660;2024-02-26T12:10:27;93930.28;;;13.75;47.95
65800;BME280;52544;48.116;11.660;2024-02-26T12:13:02;93931.34;;;14.02;49.23
65800;BME280;52544;48.116;11.660;2024-02-26T12:15:39;93924.97;;;14.24;49.30
65800;BME280;52544;48.116;11.660;2024-02-26T12:18:06;93927.53;;;14.39;46.40
65800;BME280;52544;48.116;11.660;2024-02-26T12:20:32;93925.81;;;14.53;47.39
65800;BME280;52544;48.116;11.660;2024-02-26T12:22:58;93924.50;;;14.70;46.57
65800;BME280;52544;48.116;11.660;2024-02-26T12:25:25;93919.41;;;14.75;45.98
65800;BME280;52544;48.116;11.660;2024-02-26T12:27:53;93917.72;;;14.68;46.10
65800;BME280;52544;48.116;11.660;2024-02-26T12:30:19;93931.59;;;14.07;44.73
65800;BME280;52544;48.116;11.660;2024-02-26T12:32:45;93932.88;;;13.90;45.49
65800;BME280;52544;48.116;11.660;2024-02-26T12:35:11;93935.78;;;13.95;46.28
65800;BME280;52544;48.116;11.660;2024-02-26T12:37:38;93940.28;;;14.22;45.92
65800;BME280;52544;48.116;11.660;2024-02-26T12:40:08;93939.31;;;14.52;46.31
65800;BME280;52544;48.116;11.660;2024-02-26T12:42:34;93953.19;;;14.75;43.88
65800;BME280;52544;48.116;11.660;2024-02-26T12:45:05;93960.44;;;14.88;43.93
65800;BME280;52544;48.116;11.660;2024-02-26T12:47:41;93966.34;;;14.48;43.29
65800;BME280;52544;48.116;11.660;2024-02-26T12:50:08;93956.91;;;14.24;44.97
65800;BME280;52544;48.116;11.660;2024-02-26T12:52:35;93969.56;;;14.01;44.58